Time;durP1;ratioP1;P1;durP2;ratioP2;P2;SDS_P1;SDS_P2;PMS_P1;PMS_P2;Temp;Humidity;BMP_temperature;BMP_pressure;BME280_temperature;BME280_humidity;BME280_pressure;Samples;Min_cycle;Max_cycle;Signal;HPM_P1;HPM_P2
2020/12/06 00:01:28;;;;;;;34.65;25.65;;;4.40;68.70;5.70;67513.00;;;;5061712;28;20425;-78
2020/12/06 00:03:56;;;;;;;37.83;27.52;;;4.30;69.10;5.60;98935.00;;;;5053387;28;20801;-78
2020/12/06 00:06:24;;;;;;;33.15;26.23;;;4.30;69.30;5.50;98961.00;;;;5055995;28;20417;-78
2020/12/06 00:08:52;;;;;;;33.17;25.67;;;4.20;69.00;5.40;67457.00;;;;5053999;28;20446;-78
2020/12/06 00:11:19;;;;;;;35.03;27.40;;;4.20;69.40;5.40;98938.00;;;;5049898;28;20423;-78
2020/12/06 00:13:47;;;;;;;36.83;27.90;;;4.20;69.30;5.50;98924.00;;;;5052860;28;20505;-78
2020/12/06 00:16:17;;;;;;;35.75;27.50;;;4.20;69.90;217.30;159070.00;;;;5068317;28;20413;-78
2020/12/06 00:18:47;;;;;;;35.45;27.63;;;4.20;69.90;5.60;98934.00;;;;5053792;28;20582;-78
2020/12/06 00:21:16;;;;;;;35.20;27.75;;;4.30;69.80;5.60;98941.00;;;;5061967;28;20529;-79
2020/12/06 00:23:44;;;;;;;35.65;28.33;;;4.30;69.60;5.70;98935.00;;;;5099760;28;20413;-79
2020/12/06 00:26:15;;;;;;;34.03;27.40;;;4.30;69.60;5.70;98923.00;;;;5070201;28;20820;-78
2020/12/06 00:28:42;;;;;;;35.03;27.58;;;4.30;69.50;5.70;98915.00;;;;5055822;28;20428;-78
2020/12/06 00:31:11;;;;;;;38.15;28.15;;;4.30;69.70;5.70;98901.00;;;;5055285;28;20470;-79
2020/12/06 00:33:39;;;;;;;37.05;28.30;;;4.30;69.50;5.60;98896.00;;;;5070488;28;20437;-80
2020/12/06 00:36:09;;;;;;;38.00;28.77;;;4.30;69.50;5.50;98872.00;;;;5085594;28;20413;-80
2020/12/06 00:38:37;;;;;;;37.17;28.70;;;4.30;70.20;5.60;98903.00;;;;5060907;28;20428;-79
2020/12/06 00:41:05;;;;;;;37.35;28.13;;;4.30;70.00;5.70;98906.00;;;;5058962;28;20468;-77
2020/12/06 00:43:33;;;;;;;36.83;28.33;;;4.30;70.00;5.70;98906.00;;;;5049380;28;20474;-80
2020/12/06 00:46:01;;;;;;;35.80;27.43;;;4.30;69.60;5.70;98912.00;;;;5054836;28;20529;-78
2020/12/06 00:48:29;;;;;;;37.10;29.30;;;4.40;69.30;5.60;98893.00;;;;5066752;28;20434;-78
2020/12/06 00:50:56;;;;;;;36.42;28.40;;;4.30;69.20;5.60;67490.00;;;;5048061;28;20413;-78
2020/12/06 00:53:27;;;;;;;34.83;27.80;;;4.30;69.20;5.50;98918.00;;;;5061475;28;20511;-78
2020/12/06 00:55:55;;;;;;;38.35;30.08;;;4.20;69.90;5.40;98906.00;;;;5061764;28;20421;-78
2020/12/06 00:58:22;;;;;;;36.75;29.38;;;4.10;69.80;5.50;98922.00;;;;5037318;28;20495;-78
2020/12/06 01:00:50;;;;;;;35.83;27.75;;;4.30;70.10;5.50;98936.00;;;;5070980;28;20460;-78
2020/12/06 01:03:17;;;;;;;34.10;26.90;;;4.20;69.60;5.40;98914.00;;;;5064302;28;20459;-79
2020/12/06 01:05:44;;;;;;;36.37;28.07;;;4.20;69.40;5.40;98925.00;;;;5064908;28;20421;-79
2020/12/06 01:08:12;;;;;;;36.67;28.23;;;4.10;69.60;5.50;98941.00;;;;5062177;28;20457;-78
2020/12/06 01:10:40;;;;;;;35.53;29.00;;;4.20;70.00;5.60;98936.00;;;;5063147;28;20857;-78
2020/12/06 01:13:07;;;;;;;36.95;28.17;;;4.30;70.10;5.70;98944.00;;;;5078073;28;20969;-77
2020/12/06 01:15:34;;;;;;;35.75;27.00;;;4.40;70.00;5.70;98933.00;;;;5052009;28;20449;-77
2020/12/06 01:18:02;;;;;;;33.60;27.02;;;4.30;68.70;5.60;98922.00;;;;5056892;28;20421;-78
2020/12/06 01:20:29;;;;;;;34.80;27.38;;;4.30;68.30;5.70;98904.00;;;;5071575;28;20409;-78
2020/12/06 01:22:57;;;;;;;36.07;27.57;;;4.30;68.70;5.80;98928.00;;;;5078298;28;20580;-79
2020/12/06 01:25:24;;;;;;;34.20;26.48;;;4.40;69.10;5.70;98916.00;;;;5074428;28;20405;-78
2020/12/06 01:27:52;;;;;;;33.40;26.25;;;4.40;68.40;5.70;98901.00;;;;5075840;28;20500;-78
2020/12/06 01:30:20;;;;;;;34.20;27.27;;;4.40;68.60;5.70;98886.00;;;;5075543;28;20516;-80
2020/12/06 01:32:47;;;;;;;32.78;26.20;;;4.30;68.60;5.70;98892.00;;;;5073241;28;20524;-79
2020/12/06 01:35:14;;;;;;;32.20;25.80;;;4.40;68.70;5.60;98885.00;;;;5072462;28;20435;-80
2020/12/06 01:37:42;;;;;;;31.98;26.65;;;4.30;68.00;5.60;98880.00;;;;5056789;28;20423;-81
2020/12/06 01:40:09;;;;;;;35.03;27.90;;;4.30;68.30;5.70;98873.00;;;;5060336;28;20483;-80
2020/12/06 01:42:37;;;;;;;35.45;26.90;;;4.30;68.50;5.80;98876.00;;;;5060418;28;20401;-81
2020/12/06 01:45:05;;;;;;;35.20;25.85;;;4.40;68.40;5.70;98862.00;;;;5064026;28;20442;-80
2020/12/06 01:47:32;;;;;;;35.50;27.10;;;4.50;68.30;5.70;98858.00;;;;5063903;28;20433;-80
2020/12/06 01:50:00;;;;;;;34.40;26.80;;;4.40;68.70;5.70;98851.00;;;;5079813;28;20448;-80
2020/12/06 01:52:29;;;;;;;32.30;25.70;;;4.40;68.80;5.60;98879.00;;;;5063857;28;20488;-80
2020/12/06 01:54:58;;;;;;;32.37;26.00;;;4.30;68.70;5.40;98850.00;;;;5081819;28;20509;-80
2020/12/06 01:57:25;;;;;;;36.40;28.08;;;4.20;69.00;5.40;98872.00;;;;5085617;28;20416;-80
2020/12/06 01:59:52;;;;;;;33.35;25.98;;;4.20;69.30;5.40;98856.00;;;;5062631;28;20419;-80
2020/12/06 02:02:21;;;;;;;30.85;25.75;;;4.20;68.80;5.50;98829.00;;;;5064096;28;20446;-80
2020/12/06 02:04:53;;;;;;;34.10;25.73;;;4.20;69.00;5.50;98834.00;;;;5061670;28;20405;-80
2020/12/06 02:07:22;;;;;;;33.50;25.67;;;4.30;69.00;5.40;98843.00;;;;5056240;28;20425;-81
2020/12/06 02:09:49;;;;;;;35.15;25.85;;;4.30;68.90;5.50;98842.00;;;;5064903;28;20428;-81
2020/12/06 02:12:17;;;;;;;33.80;25.60;;;4.20;69.50;5.40;98866.00;;;;5070796;28;20406;-80
2020/12/06 02:14:45;;;;;;;33.88;26.17;;;4.20;69.10;5.50;98893.00;;;;5071234;28;20440;-80
2020/12/06 02:17:12;;;;;;;34.08;25.90;;;4.30;69.40;5.50;98890.00;;;;5069546;28;20442;-80
2020/12/06 02:19:42;;;;;;;34.72;27.38;;;4.30;69.30;5.60;98881.00;;;;5065015;28;20421;-81
2020/12/06 02:22:10;;;;;;;36.70;27.33;;;4.30;69.80;5.60;98905.00;;;;5074124;28;20402;-80
2020/12/06 02:24:37;;;;;;;33.87;26.13;;;4.40;69.90;5.60;98890.00;;;;5103527;28;20500;-79
2020/12/06 02:27:04;;;;;;;34.58;25.20;;;4.40;69.60;5.60;98897.00;;;;5094934;28;20422;-79
2020/12/06 02:29:32;;;;;;;33.53;26.70;;;4.40;69.20;5.50;98902.00;;;;5061576;28;20442;-79
2020/12/06 02:32:00;;;;;;;31.33;24.75;;;4.40;69.40;5.40;98886.00;;;;5071161;28;20422;-79
2020/12/06 02:34:27;;;;;;;32.33;25.55;;;4.30;68.90;5.40;67457.00;;;;5072103;28;20417;-79
2020/12/06 02:36:54;;;;;;;31.90;24.90;;;4.30;69.40;5.40;98863.00;;;;5069929;28;20417;-79
2020/12/06 02:39:23;;;;;;;30.92;23.77;;;4.30;68.70;5.40;98855.00;;;;5074196;28;20475;-79
2020/12/06 02:41:51;;;;;;;31.70;23.40;;;4.30;68.80;5.30;98837.00;;;;5094552;28;20407;-79
2020/12/06 02:44:18;;;;;;;31.05;24.08;;;4.30;68.70;5.30;98834.00;;;;5081068;28;20488;-80
2020/12/06 02:46:46;;;;;;;30.27;24.70;;;4.20;68.70;5.30;98841.00;;;;5079773;28;20405;-79
2020/12/06 02:49:13;;;;;;;30.75;23.83;;;4.30;69.50;5.30;98833.00;;;;5065720;28;20434;-80
2020/12/06 02:51:40;;;;;;;30.80;23.33;;;4.30;69.00;5.30;98828.00;;;;5061997;28;20528;-80
2020/12/06 02:54:10;;;;;;;31.45;25.35;;;4.30;68.70;5.40;98829.00;;;;5069822;28;20420;-79
2020/12/06 02:56:38;;;;;;;31.50;24.70;;;4.30;69.60;5.50;98845.00;;;;5065700;28;20421;-79
2020/12/06 02:59:05;;;;;;;32.08;25.20;;;4.30;69.00;5.60;98847.00;;;;5044788;28;20429;-79
2020/12/06 03:01:33;;;;;;;29.60;23.60;;;4.40;69.10;5.70;98865.00;;;;5042972;28;20449;-79
2020/12/06 03:04:02;;;;;;;28.45;23.48;;;4.40;68.70;5.70;98848.00;;;;5048768;28;20755;-79
2020/12/06 03:06:29;;;;;;;31.13;24.85;;;4.50;68.50;5.80;98849.00;;;;5065161;28;20417;-79
2020/12/06 03:08:57;;;;;;;31.30;24.40;;;4.50;68.30;5.80;98848.00;;;;5054839;28;20433;-79
2020/12/06 03:11:25;;;;;;;29.92;24.10;;;4.50;68.10;5.90;98843.00;;;;5063080;28;20511;-79
2020/12/06 03:13:54;;;;;;;31.65;24.27;;;4.60;68.20;5.80;98837.00;;;;5053635;28;20441;-80
2020/12/06 03:16:21;;;;;;;30.85;24.63;;;4.50;68.70;5.60;98844.00;;;;5055270;28;20779;-80
2020/12/06 03:18:48;;;;;;;35.87;26.23;;;4.40;68.90;5.50;98843.00;;;;5055096;28;20433;-79
2020/12/06 03:21:16;;;;;;;37.42;26.83;;;4.40;69.50;5.50;98823.00;;;;5049884;28;20455;-79
2020/12/06 03:23:46;;;;;;;35.78;27.10;;;4.30;70.20;5.50;98836.00;;;;5058851;28;20460;-79
2020/12/06 03:26:13;;;;;;;34.83;27.00;;;4.30;70.80;5.50;98822.00;;;;5042125;28;20496;-78
2020/12/06 03:28:40;;;;;;;36.42;28.85;;;4.30;71.50;5.30;98819.00;;;;5059417;28;20427;-78
2020/12/06 03:31:08;;;;;;;37.85;27.77;;;4.30;71.30;52.70;158966.00;;;;5062148;28;20832;-78
2020/12/06 03:33:36;;;;;;;35.83;26.80;;;4.20;71.60;5.50;98796.00;;;;5052604;28;20433;-78
2020/12/06 03:36:04;;;;;;;36.10;26.60;;;4.30;72.10;5.50;98783.00;;;;5052250;28;20423;-79
2020/12/06 03:38:31;;;;;;;36.03;28.05;;;4.20;71.70;5.50;98777.00;;;;5058857;28;20782;-78
2020/12/06 03:40:59;;;;;;;34.17;26.00;;;4.30;71.80;5.40;98785.00;;;;5050071;28;20454;-78
2020/12/06 03:43:26;;;;;;;36.95;27.30;;;4.30;71.70;5.50;98801.00;;;;5055330;28;20420;-78
2020/12/06 03:45:54;;;;;;;33.45;25.73;;;4.30;72.00;5.50;98816.00;;;;5051994;28;20460;-80
2020/12/06 03:48:22;;;;;;;34.23;26.67;;;4.30;71.70;5.60;98803.00;;;;5044359;28;20500;-78
2020/12/06 03:50:50;;;;;;;32.85;25.60;;;4.40;71.80;5.50;98812.00;;;;5071235;28;20429;-80
2020/12/06 03:53:17;;;;;;;35.58;26.13;;;4.40;71.70;5.50;98812.00;;;;5063448;28;20445;-79
2020/12/06 03:55:44;;;;;;;34.90;25.40;;;4.40;71.60;5.60;98815.00;;;;5055899;28;20427;-79
2020/12/06 03:58:12;;;;;;;32.50;24.58;;;4.40;71.50;5.60;67498.00;;;;5053218;28;20516;-80
2020/12/06 04:00:39;;;;;;;31.50;24.23;;;4.40;71.20;5.70;98792.00;;;;5049627;28;20425;-79
2020/12/06 04:03:07;;;;;;;31.75;25.00;;;4.50;71.30;5.70;98798.00;;;;5047668;28;20428;-79
2020/12/06 04:05:35;;;;;;;33.83;26.27;;;4.50;71.20;5.80;98806.00;;;;5063459;28;20456;-80
2020/12/06 04:08:02;;;;;;;33.05;24.90;;;4.50;71.20;5.80;98801.00;;;;5075754;28;20421;-82
2020/12/06 04:10:29;;;;;;;32.70;25.63;;;4.60;71.20;5.80;98809.00;;;;5075922;28;20413;-79
2020/12/06 04:12:57;;;;;;;32.00;24.02;;;4.60;71.30;5.90;98786.00;;;;5073013;28;20463;-78
2020/12/06 04:15:25;;;;;;;32.88;25.23;;;4.70;71.20;5.90;98817.00;;;;5065194;28;20413;-78
2020/12/06 04:17:53;;;;;;;32.78;25.42;;;4.60;71.00;5.80;98815.00;;;;5069327;28;20419;-83
2020/12/06 04:20:20;;;;;;;31.20;24.35;;;4.60;71.00;5.80;98800.00;;;;5076719;28;20489;-83
2020/12/06 04:22:48;;;;;;;30.45;23.35;;;4.60;71.00;5.80;98794.00;;;;5077724;28;20495;-82
2020/12/06 04:25:15;;;;;;;33.33;24.42;;;4.60;70.90;5.80;98816.00;;;;5094062;28;20413;-81
2020/12/06 04:27:43;;;;;;;31.92;24.45;;;4.60;71.00;5.80;98821.00;;;;5077294;28;20517;-82
2020/12/06 04:30:10;;;;;;;29.53;23.33;;;4.60;71.10;5.80;98806.00;;;;5084954;28;20487;-81
2020/12/06 04:32:37;;;;;;;33.20;25.55;;;4.60;70.90;5.80;98817.00;;;;5054969;28;20516;-79
2020/12/06 04:35:05;;;;;;;29.05;24.42;;;4.60;71.10;5.90;98836.00;;;;5046047;28;20414;-80
2020/12/06 04:37:33;;;;;;;30.55;23.70;;;4.60;70.80;5.90;98839.00;;;;5057010;28;20794;-78
2020/12/06 04:40:02;;;;;;;31.08;24.02;;;4.70;71.40;5.90;98838.00;;;;5065000;28;20771;-78
2020/12/06 04:42:29;;;;;;;31.45;24.00;;;4.70;70.80;5.90;98834.00;;;;5058293;28;20417;-80
2020/12/06 04:44:57;;;;;;;29.25;23.33;;;4.70;70.80;5.90;98827.00;;;;5051318;28;20477;-78
2020/12/06 04:47:47;;;;;;;35.45;25.95;;;4.70;70.70;5.90;98811.00;;;;5039520;28;20917;-78
2020/12/06 04:50:25;;;;;;;30.52;24.30;;;4.70;70.80;5.90;98807.00;;;;5051427;28;20485;-79
2020/12/06 04:52:58;;;;;;;31.20;24.80;;;4.70;70.90;5.90;98784.00;;;;5061710;28;20428;-79
2020/12/06 04:55:29;;;;;;;30.43;24.80;;;4.70;71.00;6.00;98816.00;;;;5058038;28;20411;-80
2020/12/06 04:57:58;;;;;;;32.92;25.20;;;4.70;70.90;5.90;98809.00;;;;5078575;28;20417;-80
2020/12/06 05:00:31;;;;;;;31.60;23.98;;;4.70;70.90;6.00;98820.00;;;;5069468;28;20421;-80
2020/12/06 05:03:07;;;;;;;31.13;24.42;;;4.70;70.40;5.90;98809.00;;;;5058084;28;20473;-80
2020/12/06 05:05:37;;;;;;;28.88;23.50;;;4.80;70.40;6.00;98806.00;;;;5071224;28;20936;-79
2020/12/06 05:08:08;;;;;;;29.00;22.80;;;4.80;70.10;5.90;98799.00;;;;5096229;28;20434;-78
2020/12/06 05:10:39;;;;;;;31.58;25.38;;;4.70;70.00;5.80;98801.00;;;;5094024;28;20407;-79
2020/12/06 05:13:09;;;;;;;31.63;24.05;;;4.70;69.90;5.70;98783.00;;;;5085918;28;20467;-79
2020/12/06 05:15:36;;;;;;;35.40;25.40;;;4.60;70.00;5.70;98781.00;;;;5065260;28;20516;-79
2020/12/06 05:18:04;;;;;;;30.20;24.67;;;4.60;70.60;5.70;98786.00;;;;5055370;28;20424;-79
2020/12/06 05:20:35;;;;;;;31.70;24.50;;;4.60;70.60;5.70;98767.00;;;;5056406;28;20463;-79
2020/12/06 05:23:03;;;;;;;31.00;24.15;;;4.60;70.40;5.70;98765.00;;;;5054457;28;20428;-79
2020/12/06 05:25:30;;;;;;;34.55;24.58;;;4.50;70.60;5.70;98761.00;;;;5061324;28;20441;-78
2020/12/06 05:27:59;;;;;;;32.13;23.30;;;4.60;71.30;5.60;98781.00;;;;5055008;28;20479;-79
2020/12/06 05:30:26;;;;;;;32.35;25.00;;;4.50;70.90;5.60;98778.00;;;;5049214;28;20417;-78
2020/12/06 05:32:54;;;;;;;34.45;25.50;;;4.50;71.40;5.60;98776.00;;;;5065464;28;20451;-79
2020/12/06 05:35:21;;;;;;;33.83;25.48;;;4.50;71.60;5.60;98778.00;;;;5065141;28;20440;-79
2020/12/06 05:37:51;;;;;;;32.08;25.13;;;4.50;71.70;5.60;98794.00;;;;5056527;28;20508;-79
2020/12/06 05:40:18;;;;;;;34.45;26.13;;;4.50;71.80;5.60;98805.00;;;;5055418;28;20919;-79
2020/12/06 05:42:47;;;;;;;35.25;26.42;;;4.60;72.20;5.70;98741.00;;;;5042642;28;20852;-80
2020/12/06 05:45:19;;;;;;;34.50;26.20;;;4.50;72.20;5.80;98777.00;;;;5054137;28;20522;-80
2020/12/06 05:47:47;;;;;;;35.60;26.42;;;4.50;72.10;5.80;98796.00;;;;5060130;28;20431;-80
2020/12/06 05:50:16;;;;;;;36.08;27.23;;;4.60;72.40;5.80;98766.00;;;;5054887;28;20488;-80
2020/12/06 05:52:44;;;;;;;36.90;26.05;;;4.60;72.30;5.80;98769.00;;;;5063399;28;20417;-79
2020/12/06 05:55:11;;;;;;;34.88;26.52;;;4.60;72.20;5.70;98764.00;;;;5064672;28;20420;-80
2020/12/06 05:57:48;;;;;;;37.83;27.25;;;4.60;72.20;5.70;98739.00;;;;5071413;28;20417;-79
2020/12/06 06:00:16;;;;;;;37.17;27.10;;;4.50;72.40;5.70;98746.00;;;;5072646;28;20459;-80
2020/12/06 06:02:44;;;;;;;39.75;28.63;;;4.50;72.80;5.70;98744.00;;;;5066668;28;20419;-78
2020/12/06 06:05:20;;;;;;;38.45;28.10;;;4.50;72.80;5.80;67544.00;;;;5053882;28;20425;-79
2020/12/06 06:07:49;;;;;;;39.00;28.20;;;4.60;73.00;217.30;159191.00;;;;5052143;28;20425;-78
2020/12/06 06:10:19;;;;;;;38.20;27.40;;;4.60;73.10;5.90;98744.00;;;;5053106;28;20426;-79
2020/12/06 06:12:53;;;;;;;41.40;28.75;;;4.60;72.80;5.90;98741.00;;;;5058704;28;20428;-79
2020/12/06 06:15:22;;;;;;;37.08;27.02;;;4.60;72.90;5.90;98734.00;;;;5052199;28;20483;-79
2020/12/06 06:17:49;;;;;;;39.70;28.70;;;4.60;73.00;5.90;98726.00;;;;5057510;28;20516;-79
2020/12/06 06:20:20;;;;;;;41.10;28.20;;;4.70;72.90;5.90;98729.00;;;;5075851;28;20539;-79
2020/12/06 06:22:49;;;;;;;44.50;28.65;;;4.60;72.80;5.90;67573.00;;;;5082037;28;20441;-79
2020/12/06 06:25:17;;;;;;;39.22;28.50;;;4.70;72.60;6.00;98744.00;;;;5048137;28;20441;-79
2020/12/06 06:27:45;;;;;;;35.67;26.67;;;4.70;72.50;5.90;98750.00;;;;5054693;28;20510;-79
2020/12/06 06:30:12;;;;;;;40.40;29.07;;;4.70;72.20;6.00;98750.00;;;;5087079;28;20425;-80
2020/12/06 06:32:43;;;;;;;40.83;28.37;;;4.60;72.50;6.00;98744.00;;;;5072096;28;20490;-79
2020/12/06 06:35:12;;;;;;;36.85;26.60;;;4.70;72.60;6.10;98748.00;;;;5076079;28;20463;-80
2020/12/06 06:37:40;;;;;;;37.25;27.92;;;4.70;72.30;6.20;98746.00;;;;5067224;28;20504;-78
2020/12/06 06:40:10;;;;;;;39.47;28.05;;;4.70;72.10;6.20;98728.00;;;;5075772;28;20504;-78
2020/12/06 06:42:38;;;;;;;35.17;26.63;;;4.80;72.00;6.10;98729.00;;;;5062359;28;20652;-79
2020/12/06 06:45:09;;;;;;;39.65;28.83;;;4.80;71.80;6.00;98735.00;;;;5067499;28;20455;-79
2020/12/06 06:47:38;;;;;;;40.65;29.45;;;4.70;72.00;6.10;98733.00;;;;5069599;28;20433;-79
2020/12/06 06:50:08;;;;;;;40.47;29.25;;;4.70;72.00;6.10;98720.00;;;;5060333;28;20474;-79
2020/12/06 06:52:40;;;;;;;40.15;30.00;;;4.70;72.10;6.10;98737.00;;;;5085461;28;20425;-79
2020/12/06 06:55:09;;;;;;;39.75;28.80;;;4.80;71.90;6.10;98742.00;;;;5079120;28;20400;-80
2020/12/06 06:57:40;;;;;;;38.35;28.60;;;4.90;72.20;6.20;98757.00;;;;5092310;28;20435;-80
2020/12/06 07:00:08;;;;;;;37.20;27.70;;;4.80;71.90;6.20;98776.00;;;;5078010;28;20413;-80
2020/12/06 07:02:37;;;;;;;38.15;28.05;;;4.80;71.70;6.20;98781.00;;;;5077589;28;20466;-80
2020/12/06 07:05:08;;;;;;;37.50;27.38;;;4.80;71.40;6.20;98777.00;;;;5065223;28;20425;-79
2020/12/06 07:07:44;;;;;;;38.47;28.10;;;4.80;71.40;6.20;98795.00;;;;5059892;28;20494;-79
2020/12/06 07:10:14;;;;;;;37.17;27.10;;;4.80;71.30;6.10;98780.00;;;;5059991;28;20471;-79
2020/12/06 07:12:48;;;;;;;36.40;27.45;;;4.80;71.40;6.20;98810.00;;;;5071481;28;20787;-79
2020/12/06 07:15:17;;;;;;;37.10;28.00;;;4.80;71.80;6.10;98802.00;;;;5056141;28;20776;-79
2020/12/06 07:17:45;;;;;;;38.28;28.38;;;4.80;71.40;6.30;98804.00;;;;5044066;28;20418;-79
2020/12/06 07:20:15;;;;;;;37.00;27.50;;;4.80;71.60;6.30;98805.00;;;;5057568;28;20447;-79
2020/12/06 07:22:47;;;;;;;38.40;27.95;;;4.90;71.60;6.20;98784.00;;;;5053671;28;20443;-78
2020/12/06 07:25:16;;;;;;;40.72;29.20;;;4.90;71.40;6.30;98800.00;;;;5065704;28;20429;-80
2020/12/06 07:27:44;;;;;;;35.13;27.65;;;4.90;71.30;6.30;98813.00;;;;5056511;28;20459;-80
2020/12/06 07:30:19;;;;;;;35.05;26.42;;;5.00;71.50;6.30;98816.00;;;;5077571;28;20430;-80
2020/12/06 07:32:47;;;;;;;34.58;26.27;;;4.90;71.40;6.40;67668.00;;;;5055759;28;20495;-79
2020/12/06 07:35:18;;;;;;;32.45;25.48;;;5.10;71.10;6.30;98798.00;;;;5057416;28;20427;-80
2020/12/06 07:37:46;;;;;;;34.97;26.70;;;4.90;70.50;6.30;98802.00;;;;5074774;28;20481;-79
2020/12/06 07:40:15;;;;;;;33.85;26.17;;;4.90;70.80;6.30;98804.00;;;;5056591;28;20524;-79
2020/12/06 07:42:43;;;;;;;34.50;26.55;;;4.90;71.40;6.30;98775.00;;;;5074545;28;20432;-80
2020/12/06 07:45:10;;;;;;;35.97;26.25;;;4.90;70.90;52.70;159399.00;;;;5069840;28;20456;-80
2020/12/06 07:47:38;;;;;;;34.80;26.40;;;4.90;71.00;6.40;98795.00;;;;5068281;28;20950;-79
2020/12/06 07:50:07;;;;;;;32.70;25.60;;;4.90;71.00;52.70;159395.00;;;;5054005;28;20422;-79
2020/12/06 07:52:37;;;;;;;31.83;25.40;;;5.00;71.00;6.30;98813.00;;;;5074237;28;20849;-79
2020/12/06 07:55:06;;;;;;;34.10;24.65;;;5.00;70.70;6.40;98800.00;;;;5063766;28;20520;-80
2020/12/06 07:57:43;;;;;;;33.05;26.27;;;5.00;70.90;6.40;98810.00;;;;5057085;28;20482;-79
2020/12/06 08:00:12;;;;;;;31.25;25.23;;;5.00;70.50;6.50;98810.00;;;;5048880;28;20447;-78
2020/12/06 08:02:43;;;;;;;33.67;25.85;;;5.10;70.70;6.50;98809.00;;;;5060366;28;20475;-79
2020/12/06 08:05:15;;;;;;;32.22;24.92;;;5.10;70.50;6.40;98813.00;;;;5061408;28;20496;-80
2020/12/06 08:07:47;;;;;;;34.55;25.95;;;5.00;70.30;6.50;98803.00;;;;5061246;28;20417;-80
2020/12/06 08:10:17;;;;;;;33.45;26.00;;;5.00;70.70;6.60;98808.00;;;;5058717;28;20452;-80
2020/12/06 08:12:47;;;;;;;34.47;26.45;;;5.10;70.70;6.60;98799.00;;;;5051204;28;20410;-80
2020/12/06 08:15:15;;;;;;;30.13;25.17;;;5.10;70.70;6.60;98823.00;;;;5066968;28;20451;-81
2020/12/06 08:17:44;;;;;;;32.08;25.65;;;5.20;70.30;6.60;98803.00;;;;5064262;28;20418;-80
2020/12/06 08:20:14;;;;;;;32.40;25.98;;;5.20;69.80;6.70;98798.00;;;;5041443;28;20529;-80
2020/12/06 08:22:57;;;;;;;31.73;25.30;;;5.20;70.00;6.70;98805.00;;;;5050395;28;20426;-78
2020/12/06 08:25:28;;;;;;;32.45;26.60;;;5.20;69.90;6.70;98784.00;;;;5059425;28;20427;-79
2020/12/06 08:27:58;;;;;;;33.90;26.60;;;5.20;69.50;6.60;98795.00;;;;5043055;28;20451;-79
2020/12/06 08:30:29;;;;;;;33.63;27.38;;;5.20;69.90;6.60;98785.00;;;;5054231;28;20425;-80
2020/12/06 08:32:58;;;;;;;34.63;26.45;;;5.20;70.10;6.60;98773.00;;;;5057520;28;20840;-79
2020/12/06 08:35:40;;;;;;;34.42;26.08;;;5.10;70.10;6.60;98800.00;;;;5060024;28;21009;-80
2020/12/06 08:38:16;;;;;;;31.77;24.20;;;5.20;70.10;6.60;98791.00;;;;5062046;28;20814;-80
2020/12/06 08:41:04;;;;;;;31.70;25.57;;;5.10;70.60;6.60;98764.00;;;;5076130;28;21381;-80
2020/12/06 08:43:48;;;;;;;33.55;26.50;;;5.10;69.90;6.70;98759.00;;;;5076020;28;20452;-79
2020/12/06 08:46:19;;;;;;;33.05;26.10;;;5.20;69.70;6.70;98768.00;;;;5038035;28;20424;-79
2020/12/06 08:48:48;;;;;;;30.40;25.10;;;5.20;69.20;6.70;98775.00;;;;5052132;28;20474;-80
2020/12/06 08:51:32;;;;;;;32.92;24.95;;;5.20;69.20;6.60;98787.00;;;;5063090;28;20427;-80
2020/12/06 08:54:04;;;;;;;33.58;26.33;;;5.20;69.60;6.70;98788.00;;;;5045743;28;20423;-80
2020/12/06 08:56:35;;;;;;;30.35;25.55;;;5.20;69.40;6.80;98810.00;;;;5063852;28;20471;-78
2020/12/06 08:59:07;;;;;;;31.80;25.17;;;5.30;69.50;52.70;159565.00;;;;5057709;28;20435;-79
2020/12/06 09:01:47;;;;;;;32.83;25.50;;;5.30;69.40;7.00;98787.00;;;;5072384;28;20425;-79
2020/12/06 09:04:15;;;;;;;30.42;25.10;;;5.40;68.90;7.00;98806.00;;;;5081092;28;20477;-79
2020/12/06 09:06:42;;;;;;;32.72;25.50;;;5.40;67.90;7.00;98784.00;;;;5060892;28;20457;-80
2020/12/06 09:09:12;;;;;;;31.02;24.08;;;5.40;68.40;7.00;98809.00;;;;5070022;28;20419;-79
2020/12/06 09:11:39;;;;;;;31.67;25.42;;;5.50;68.40;7.00;98810.00;;;;5051110;28;20804;-81
2020/12/06 09:14:10;;;;;;;30.45;24.27;;;5.60;68.30;7.10;98822.00;;;;5059308;28;20413;-82
2020/12/06 09:16:39;;;;;;;30.63;25.08;;;5.50;68.30;7.10;98811.00;;;;5059682;28;20836;-80
2020/12/06 09:19:07;;;;;;;32.07;25.00;;;5.60;68.30;7.10;98832.00;;;;5054981;28;20428;-80
2020/12/06 09:21:34;;;;;;;31.20;24.55;;;5.60;67.90;7.20;98819.00;;;;5054644;28;20839;-79
2020/12/06 09:24:02;;;;;;;28.55;23.90;;;5.60;67.20;7.30;98811.00;;;;5069371;28;20830;-80
2020/12/06 09:26:31;;;;;;;30.02;24.73;;;5.70;67.00;7.30;98805.00;;;;5053340;28;20412;-80
2020/12/06 09:28:58;;;;;;;28.95;23.80;;;5.70;67.00;7.30;98646.00;;;;5063749;28;20853;-79
2020/12/06 09:31:26;;;;;;;29.65;24.50;;;5.60;67.10;7.20;98823.00;;;;5055124;28;20421;-80
2020/12/06 09:33:55;;;;;;;30.05;24.73;;;5.60;67.00;7.20;67843.00;;;;5056290;28;20447;-80
2020/12/06 09:36:23;;;;;;;31.27;25.23;;;5.50;67.40;7.20;98796.00;;;;5059520;28;20418;-79
2020/12/06 09:38:51;;;;;;;30.90;24.47;;;5.60;67.90;7.20;98787.00;;;;5062922;28;20505;-79
2020/12/06 09:41:18;;;;;;;31.75;24.13;;;5.60;67.50;7.20;98787.00;;;;5065071;28;20444;-81
2020/12/06 09:43:47;;;;;;;32.85;27.27;;;5.60;67.60;217.30;159813.00;;;;5055658;28;20417;-82
2020/12/06 09:46:15;;;;;;;27.60;23.30;;;5.80;70.60;7.50;67900.00;;;;5080791;28;20443;-81
2020/12/06 09:48:43;;;;;;;32.17;24.42;;;6.20;70.30;7.50;98776.00;;;;5087789;28;20415;-80
2020/12/06 09:51:11;;;;;;;64.15;38.20;;;6.10;66.70;7.50;98780.00;;;;5070319;28;20441;-79
2020/12/06 09:53:39;;;;;;;39.65;28.30;;;6.00;65.60;7.50;98761.00;;;;5074380;28;20431;-79
2020/12/06 09:56:06;;;;;;;33.78;25.95;;;5.90;66.40;7.60;67938.00;;;;5072920;28;20413;-79
2020/12/06 09:58:34;;;;;;;29.92;24.65;;;6.20;66.70;7.70;98774.00;;;;5068099;28;20471;-80
2020/12/06 10:01:03;;;;;;;32.10;25.60;;;6.10;66.10;7.60;98779.00;;;;5063958;28;20833;-80
2020/12/06 10:03:31;;;;;;;30.50;25.45;;;6.10;65.20;7.60;98777.00;;;;5061909;28;20456;-82
2020/12/06 10:05:58;;;;;;;28.98;23.75;;;6.00;66.10;7.70;98770.00;;;;5070257;28;20443;-81
2020/12/06 10:08:30;;;;;;;31.50;25.77;;;6.20;65.10;7.80;98753.00;;;;5074902;28;20416;-80
2020/12/06 10:10:57;;;;;;;29.58;24.60;;;6.30;65.00;7.90;98767.00;;;;5076428;28;20400;-79
2020/12/06 10:13:25;;;;;;;28.92;24.42;;;6.30;64.90;8.00;68017.00;;;;5085904;28;20483;-81
2020/12/06 10:15:52;;;;;;;30.20;24.80;;;6.40;66.00;8.00;98753.00;;;;5097156;28;20416;-81
2020/12/06 10:18:20;;;;;;;33.70;28.30;;;6.50;64.20;8.10;68042.00;;;;5080163;28;20421;-81
2020/12/06 10:20:48;;;;;;;31.40;26.88;;;6.40;64.30;8.10;98746.00;;;;5097092;28;20409;-81
2020/12/06 10:23:18;;;;;;;28.55;24.63;;;6.40;65.30;8.30;68087.00;;;;5080147;28;20413;-80
2020/12/06 10:25:45;;;;;;;32.85;27.55;;;6.60;64.10;8.40;68119.00;;;;5096709;28;20412;-80
2020/12/06 10:28:13;;;;;;;35.80;28.58;;;6.70;63.60;8.50;98731.00;;;;5079838;28;20420;-81
2020/12/06 10:30:40;;;;;;;34.72;29.90;;;6.60;63.00;8.50;98727.00;;;;5080554;28;20457;-82
2020/12/06 10:33:08;;;;;;;28.13;23.75;;;6.70;63.30;8.60;98682.00;;;;5079568;28;20405;-81
2020/12/06 10:35:40;;;;;;;30.73;25.20;;;6.90;63.00;8.60;68160.00;;;;5079659;28;20401;-80
2020/12/06 10:38:07;;;;;;;31.60;25.43;;;6.70;62.60;8.60;98728.00;;;;5079008;28;20409;-80
2020/12/06 10:40:36;;;;;;;36.35;26.75;;;6.70;62.40;8.50;68140.00;;;;5092815;28;20495;-76
2020/12/06 10:43:03;;;;;;;31.00;25.67;;;6.70;62.10;8.60;68160.00;;;;5100276;28;20392;-78
2020/12/06 10:45:34;;;;;;;30.08;25.80;;;6.70;62.70;8.60;98726.00;;;;5090085;28;20427;-80
2020/12/06 10:48:03;;;;;;;30.83;25.45;;;6.80;62.20;8.70;68179.00;;;;5078540;28;20479;-81
2020/12/06 10:50:30;;;;;;;29.60;24.45;;;6.80;61.50;8.70;98751.00;;;;5065979;28;20425;-81
2020/12/06 10:52:59;;;;;;;31.58;25.67;;;6.90;61.00;8.80;98741.00;;;;5071901;28;20403;-79
2020/12/06 10:55:29;;;;;;;28.48;24.63;;;6.90;61.40;8.60;68165.00;;;;5058959;28;20427;-81
2020/12/06 10:57:57;;;;;;;30.23;24.80;;;6.80;60.50;8.30;98704.00;;;;5075522;28;20425;-81
2020/12/06 11:00:24;;;;;;;30.42;25.15;;;6.70;61.00;52.70;160198.00;;;;5060295;28;20458;-80
2020/12/06 11:02:54;;;;;;;28.13;24.10;;;6.50;61.80;8.10;98751.00;;;;5053422;28;20412;-80